createdAt,value
2017-08-25T00:00:30.731Z,0
2017-08-25T00:01:11.228Z,0
2017-08-25T00:01:51.607Z,0
2017-08-25T00:02:32.122Z,0
2017-08-25T00:03:12.531Z,0
2017-08-25T00:03:52.876Z,0
2017-08-25T00:04:33.396Z,0
2017-08-25T00:05:13.920Z,0
2017-08-25T00:05:54.167Z,0
2017-08-25T00:06:34.576Z,0
2017-08-25T00:07:15.163Z,0
2017-08-25T00:07:55.577Z,0
2017-08-25T00:08:35.955Z,0
2017-08-25T00:09:16.500Z,0
2017-08-25T00:09:57.020Z,0
2017-08-25T00:24:20.324Z,0
2017-08-25T00:25:17.226Z,0
2017-08-25T00:26:16.960Z,0
2017-08-25T00:27:17.370Z,0
2017-08-25T00:28:15.394Z,0
2017-08-25T00:29:12.610Z,0
2017-08-25T00:30:08.105Z,0
2017-08-25T00:31:02.392Z,0
2017-08-25T00:31:58.681Z,0
2017-08-25T00:32:56.132Z,0
2017-08-25T00:33:52.570Z,0
2017-08-25T00:34:48.773Z,0
2017-08-25T00:35:44.632Z,0
2017-08-25T00:36:39.114Z,0
2017-08-25T00:37:36.477Z,0
2017-08-25T00:38:33.182Z,0
2017-08-25T00:39:31.866Z,0
2017-08-25T00:40:29.355Z,0
2017-08-25T00:41:24.077Z,0
2017-08-25T00:42:21.885Z,0
2017-08-25T00:43:22.442Z,0
2017-08-25T00:44:20.717Z,0
2017-08-25T00:45:18.891Z,0
2017-08-25T00:46:15.230Z,0
2017-08-25T00:47:12.994Z,0
2017-08-25T00:48:16.011Z,0
2017-08-25T00:49:16.306Z,0
2017-08-25T00:50:22.586Z,0
2017-08-25T00:51:22.311Z,0
2017-08-25T00:52:24.507Z,0
2017-08-25T00:53:22.858Z,0
2017-08-25T00:54:25.455Z,0
2017-08-25T00:55:25.340Z,0
2017-08-25T00:56:25.931Z,0
2017-08-25T00:57:24.457Z,0
2017-08-25T00:58:23.929Z,0
2017-08-25T00:59:23.333Z,0
2017-08-25T01:00:22.893Z,0
2017-08-25T01:01:23.852Z,0
2017-08-25T01:02:23.902Z,0
2017-08-25T01:03:23.028Z,0
2017-08-25T01:04:25.738Z,0
2017-08-25T01:05:26.145Z,0
2017-08-25T01:06:27.948Z,0
2017-08-25T01:07:24.056Z,0
2017-08-25T01:08:24.459Z,0
2017-08-25T01:09:22.397Z,0
2017-08-25T01:10:23.729Z,0
2017-08-25T01:11:23.195Z,0
2017-08-25T01:12:22.735Z,0
2017-08-25T01:13:23.683Z,0
2017-08-25T01:14:21.983Z,0
2017-08-25T01:15:22.329Z,0
2017-08-25T01:16:24.597Z,0
2017-08-25T01:17:27.312Z,0
2017-08-25T01:18:32.042Z,0
2017-08-25T01:19:27.807Z,0
2017-08-25T01:20:29.233Z,0
2017-08-25T01:21:29.062Z,0
2017-08-25T01:22:26.653Z,0
2017-08-25T01:23:24.519Z,0
2017-08-25T01:24:24.221Z,0
2017-08-25T01:25:26.537Z,0
2017-08-25T01:26:25.218Z,0
2017-08-25T01:27:26.910Z,0
2017-08-25T01:28:31.812Z,0
2017-08-25T01:29:34.578Z,0
2017-08-25T01:30:31.101Z,0
2017-08-25T01:31:32.209Z,0
2017-08-25T01:33:49.512Z,0
2017-08-25T01:34:29.933Z,0
2017-08-25T01:35:10.443Z,0
2017-08-25T01:35:50.981Z,0
2017-08-25T01:36:31.353Z,0
2017-08-25T01:37:11.803Z,0
2017-08-25T01:37:52.165Z,0
2017-08-25T01:38:32.749Z,0
2017-08-25T01:39:13.162Z,0
2017-08-25T01:39:53.626Z,0
2017-08-25T01:40:34.252Z,0
2017-08-25T01:41:14.599Z,0
2017-08-25T01:41:55.159Z,0
2017-08-25T01:42:35.437Z,0
2017-08-25T01:43:15.957Z,0
2017-08-25T01:43:56.328Z,0
2017-08-25T01:44:36.774Z,0
2017-08-25T01:45:17.378Z,0
2017-08-25T01:45:57.748Z,0
2017-08-25T01:46:38.359Z,0
2017-08-25T01:47:19.019Z,0
2017-08-25T01:47:59.411Z,0
2017-08-25T01:48:39.779Z,0
2017-08-25T01:49:20.107Z,0
2017-08-25T01:50:00.825Z,0
2017-08-25T01:50:41.089Z,0
2017-08-25T01:51:21.705Z,0
2017-08-25T01:52:02.204Z,0
2017-08-25T01:52:42.724Z,0
2017-08-25T01:53:23.118Z,0
2017-08-25T01:54:03.546Z,0
2017-08-25T01:54:44.047Z,0
2017-08-25T01:55:24.416Z,0
2017-08-25T01:56:05.104Z,0
2017-08-25T01:56:45.665Z,0
2017-08-25T01:57:25.982Z,0
2017-08-25T01:58:06.394Z,0
2017-08-25T01:58:47.004Z,0
2017-08-25T01:59:27.421Z,0
2017-08-25T02:00:07.938Z,0
2017-08-25T02:00:48.309Z,0
2017-08-25T02:01:28.744Z,0
2017-08-25T02:02:09.240Z,0
2017-08-25T02:02:49.656Z,0
2017-08-25T02:03:30.039Z,0
2017-08-25T02:04:10.444Z,0
2017-08-25T02:04:50.831Z,0
2017-08-25T02:05:31.180Z,0
2017-08-25T02:06:11.664Z,0
2017-08-25T02:06:52.147Z,0
2017-08-25T02:07:32.635Z,0
2017-08-25T02:08:12.988Z,0
2017-08-25T02:08:53.391Z,0
2017-08-25T02:09:34.014Z,0
2017-08-25T02:10:14.301Z,0
2017-08-25T02:10:54.790Z,0
2017-08-25T02:11:35.305Z,0
2017-08-25T02:12:15.745Z,0
2017-08-25T02:12:56.166Z,0
2017-08-25T02:13:36.717Z,0
2017-08-25T02:14:17.284Z,0
2017-08-25T02:14:57.636Z,0
2017-08-25T02:15:38.074Z,0
2017-08-25T02:16:18.558Z,0
2017-08-25T02:16:58.956Z,0
2017-08-25T02:17:39.443Z,0
2017-08-25T02:18:20.046Z,0
2017-08-25T02:19:00.456Z,0
2017-08-25T02:19:40.795Z,0
2017-08-25T02:20:22.122Z,0
2017-08-25T02:21:02.454Z,0
2017-08-25T02:21:42.893Z,0
2017-08-25T02:22:23.361Z,0
2017-08-25T02:23:03.704Z,0
2017-08-25T02:23:44.151Z,0
2017-08-25T02:24:24.596Z,0
2017-08-25T02:25:04.979Z,0
2017-08-25T02:25:45.503Z,0
2017-08-25T02:26:25.874Z,0
2017-08-25T02:27:06.711Z,0
2017-08-25T02:27:47.231Z,0
2017-08-25T02:28:27.595Z,0
2017-08-25T02:29:08.094Z,0
2017-08-25T02:29:48.625Z,0
2017-08-25T02:30:28.990Z,0
2017-08-25T02:31:09.592Z,0
2017-08-25T02:31:50.080Z,0
2017-08-25T02:32:30.605Z,0
2017-08-25T02:33:11.059Z,0
2017-08-25T02:33:51.544Z,0
2017-08-25T02:40:50.872Z,0
2017-08-25T02:46:48.161Z,0
2017-08-25T02:47:43.112Z,0
2017-08-25T02:48:38.321Z,0
2017-08-25T02:49:35.399Z,0
2017-08-25T02:50:32.029Z,0
2017-08-25T02:51:29.729Z,0
2017-08-25T02:52:24.088Z,0
2017-08-25T02:53:19.444Z,0
2017-08-25T02:54:13.437Z,0
2017-08-25T02:55:11.646Z,0
2017-08-25T02:56:09.247Z,0
2017-08-25T02:57:09.976Z,0
2017-08-25T02:58:11.251Z,0
2017-08-25T02:59:08.986Z,0
2017-08-25T03:00:10.220Z,0
2017-08-25T03:02:39.550Z,0
2017-08-25T03:03:19.980Z,0
2017-08-25T03:04:00.504Z,0
2017-08-25T03:04:40.838Z,0
2017-08-25T03:05:21.624Z,0
2017-08-25T03:06:02.093Z,0
2017-08-25T03:06:42.560Z,0
2017-08-25T03:07:22.823Z,0
2017-08-25T03:08:03.240Z,0
2017-08-25T03:08:43.623Z,0
2017-08-25T03:09:24.198Z,0
2017-08-25T03:10:04.637Z,0
2017-08-25T03:10:44.968Z,0
2017-08-25T03:11:25.470Z,0
2017-08-25T03:12:05.764Z,0
2017-08-25T03:12:46.202Z,0
2017-08-25T03:13:26.664Z,0
2017-08-25T03:14:07.064Z,0
2017-08-25T03:14:47.568Z,0
2017-08-25T03:15:27.962Z,0
2017-08-25T03:16:08.397Z,0
2017-08-25T03:16:48.847Z,0
2017-08-25T03:17:29.268Z,0
2017-08-25T03:18:09.878Z,0
2017-08-25T03:18:50.349Z,0
2017-08-25T03:19:30.750Z,0
2017-08-25T03:20:11.284Z,0
2017-08-25T03:20:51.709Z,0
2017-08-25T03:21:32.179Z,0
2017-08-25T03:22:12.503Z,0
2017-08-25T03:22:52.890Z,0
2017-08-25T03:23:33.354Z,0
2017-08-25T03:24:13.855Z,0
2017-08-25T03:24:54.190Z,0
2017-08-25T03:25:34.574Z,0
2017-08-25T03:26:14.938Z,0
2017-08-25T03:26:55.373Z,0
2017-08-25T03:27:35.875Z,0
2017-08-25T03:28:16.165Z,0
2017-08-25T03:28:56.559Z,0
2017-08-25T03:29:37.048Z,0
2017-08-25T03:30:17.464Z,0
2017-08-25T03:30:58.032Z,0
2017-08-25T03:31:38.399Z,0
2017-08-25T03:32:18.852Z,0
2017-08-25T03:32:59.295Z,0
2017-08-25T03:33:39.646Z,0
2017-08-25T03:34:20.163Z,0
2017-08-25T03:35:00.509Z,0
2017-08-25T03:35:41.016Z,0
2017-08-25T03:36:21.484Z,0
2017-08-25T03:37:01.688Z,0
2017-08-25T03:37:42.215Z,0
2017-08-25T03:38:22.602Z,0
2017-08-25T03:39:02.928Z,0
2017-08-25T03:39:43.550Z,0
2017-08-25T03:40:24.022Z,0
2017-08-25T03:41:04.439Z,0
2017-08-25T03:41:44.834Z,0
2017-08-25T03:42:25.237Z,0
2017-08-25T03:43:05.666Z,0
2017-08-25T03:43:46.112Z,0
2017-08-25T03:44:26.383Z,0
2017-08-25T03:45:06.921Z,0
2017-08-25T03:45:48.038Z,0
2017-08-25T03:46:28.447Z,0
2017-08-25T03:47:08.846Z,0
2017-08-25T03:47:49.287Z,0
2017-08-25T03:48:29.762Z,0
2017-08-25T03:49:10.133Z,0
2017-08-25T03:49:50.519Z,0
2017-08-25T03:50:30.984Z,0
2017-08-25T03:51:11.378Z,0
2017-08-25T03:51:51.770Z,0
2017-08-25T03:52:32.181Z,0
2017-08-25T03:53:12.575Z,0
2017-08-25T03:53:52.996Z,0
2017-08-25T03:54:33.403Z,0
2017-08-25T03:55:13.822Z,0
2017-08-25T03:55:54.266Z,0
2017-08-25T03:56:34.741Z,0
2017-08-25T03:57:15.013Z,0
2017-08-25T03:57:55.527Z,0
2017-08-25T03:58:36.189Z,0
2017-08-25T03:59:16.399Z,0
2017-08-25T03:59:56.813Z,0
2017-08-25T04:00:37.289Z,0
2017-08-25T04:01:17.702Z,0
2017-08-25T04:01:58.092Z,0
2017-08-25T04:02:38.593Z,0
2017-08-25T04:03:19.105Z,0
2017-08-25T04:03:59.594Z,0
2017-08-25T04:04:39.993Z,0
2017-08-25T04:05:20.433Z,0
2017-08-25T04:06:00.981Z,0
2017-08-25T04:06:41.468Z,0
2017-08-25T04:07:21.886Z,0
2017-08-25T04:08:02.375Z,0
2017-08-25T04:08:42.872Z,0
2017-08-25T04:09:23.291Z,0
2017-08-25T04:10:03.799Z,0
2017-08-25T04:10:44.177Z,0
2017-08-25T04:11:24.573Z,0
2017-08-25T04:12:05.107Z,4
2017-08-25T04:12:45.373Z,4
2017-08-25T04:13:25.804Z,4
2017-08-25T04:14:06.276Z,0
2017-08-25T04:14:46.648Z,0
2017-08-25T04:15:27.094Z,4
2017-08-25T04:16:07.537Z,4
2017-08-25T04:16:47.906Z,0
2017-08-25T04:17:28.248Z,4
2017-08-25T04:18:08.913Z,4
2017-08-25T04:18:49.334Z,4
2017-08-25T04:19:29.704Z,4
2017-08-25T04:20:10.125Z,4
2017-08-25T04:20:50.692Z,4
2017-08-25T04:21:30.903Z,4
2017-08-25T04:22:11.354Z,8
2017-08-25T04:22:51.843Z,4
2017-08-25T04:23:32.367Z,8
2017-08-25T04:24:12.731Z,12
2017-08-25T04:24:53.071Z,12
2017-08-25T04:25:33.445Z,12
2017-08-25T04:26:13.998Z,12
2017-08-25T04:26:54.289Z,12
2017-08-25T04:27:34.760Z,12
2017-08-25T04:28:15.257Z,16
2017-08-25T04:28:55.644Z,12
2017-08-25T04:29:36.078Z,12
2017-08-25T04:30:16.533Z,12
2017-08-25T04:30:57.065Z,12
2017-08-25T04:31:37.336Z,16
2017-08-25T04:32:17.911Z,16
2017-08-25T04:32:58.443Z,12
2017-08-25T04:33:38.840Z,12
2017-08-25T04:34:19.234Z,16
2017-08-25T04:34:59.703Z,16
2017-08-25T04:35:39.990Z,16
2017-08-25T04:36:20.497Z,16
2017-08-25T04:37:00.889Z,16
2017-08-25T04:37:41.268Z,20
2017-08-25T04:38:21.757Z,24
2017-08-25T04:39:02.189Z,24
2017-08-25T04:39:42.631Z,28
2017-08-25T04:40:22.957Z,32
2017-08-25T04:41:03.450Z,36
2017-08-25T04:41:43.882Z,40
2017-08-25T04:42:24.302Z,48
2017-08-25T04:43:04.687Z,52
2017-08-25T04:43:45.167Z,60
2017-08-25T04:44:25.539Z,64
2017-08-25T04:45:05.915Z,68
2017-08-25T04:45:46.328Z,80
2017-08-25T04:46:26.840Z,84
2017-08-25T04:47:07.230Z,92
2017-08-25T04:47:47.749Z,96
2017-08-25T04:48:28.083Z,104
2017-08-25T04:49:08.669Z,108
2017-08-25T04:49:48.970Z,112
2017-08-25T04:50:29.341Z,116
2017-08-25T04:51:09.835Z,124
2017-08-25T04:51:50.282Z,128
2017-08-25T04:52:30.591Z,136
2017-08-25T04:53:11.142Z,144
2017-08-25T04:53:51.568Z,144
2017-08-25T04:54:34.525Z,148
2017-08-25T04:55:15.001Z,156
2017-08-25T04:55:55.386Z,160
2017-08-25T04:56:35.854Z,168
2017-08-25T04:57:16.170Z,176
2017-08-25T04:57:56.583Z,188
2017-08-25T04:58:37.125Z,208
2017-08-25T04:59:17.635Z,220
2017-08-25T04:59:58.553Z,236
2017-08-25T05:00:42.994Z,252
2017-08-25T05:01:23.324Z,264
2017-08-25T05:02:03.809Z,280
2017-08-25T05:02:44.208Z,300
2017-08-25T05:03:24.747Z,316
2017-08-25T05:04:05.268Z,332
2017-08-25T05:04:45.677Z,348
2017-08-25T05:05:26.113Z,368
2017-08-25T05:06:06.625Z,384
2017-08-25T05:06:47.023Z,404
2017-08-25T05:07:27.508Z,424
2017-08-25T05:08:08.094Z,444
2017-08-25T05:08:48.488Z,464
2017-08-25T05:09:28.996Z,496
2017-08-25T05:10:09.588Z,528
2017-08-25T05:10:50.809Z,564
2017-08-25T05:11:31.131Z,600
2017-08-25T05:12:11.673Z,636
2017-08-25T05:12:52.723Z,676
2017-08-25T05:13:33.094Z,716
2017-08-25T05:14:13.562Z,764
2017-08-25T05:14:54.054Z,816
2017-08-25T05:15:34.415Z,856
2017-08-25T05:16:14.977Z,840
2017-08-25T05:16:55.371Z,836
2017-08-25T05:17:35.845Z,848
2017-08-25T05:23:34.928Z,984
2017-08-25T05:24:40.183Z,1020
2017-08-25T05:25:43.686Z,1040
2017-08-25T05:26:44.041Z,1036
2017-08-25T05:27:45.493Z,1008
2017-08-25T05:28:52.511Z,1020
2017-08-25T05:29:48.142Z,1076
2017-08-25T05:30:44.948Z,1160
2017-08-25T05:31:39.215Z,1328
2017-08-25T05:32:23.899Z,1412
2017-08-25T05:33:04.294Z,1352
2017-08-25T05:33:44.748Z,1284
2017-08-25T05:34:25.193Z,1256
2017-08-25T05:35:05.573Z,1292
2017-08-25T05:35:46.144Z,1312
2017-08-25T05:36:26.593Z,1340
2017-08-25T05:37:06.936Z,1404
2017-08-25T05:37:47.424Z,1628
2017-08-25T05:40:08.261Z,1796
2017-08-25T05:40:48.728Z,2096
2017-08-25T05:41:29.071Z,1988
2017-08-25T05:42:09.542Z,2340
2017-08-25T05:42:49.896Z,2776
2017-08-25T05:43:30.754Z,2304
2017-08-25T05:44:11.211Z,1732
2017-08-25T05:44:51.779Z,1624
2017-08-25T05:45:32.662Z,1748
2017-08-25T05:46:12.782Z,1792
2017-08-25T05:46:53.209Z,1872
2017-08-25T05:47:33.677Z,2400
2017-08-25T05:48:14.097Z,2304
2017-08-25T05:48:54.567Z,1888
2017-08-25T05:49:35.089Z,1832
2017-08-25T05:50:15.503Z,1900
2017-08-25T05:50:56.092Z,2012
2017-08-25T05:51:36.478Z,1960
2017-08-25T05:52:16.914Z,2252
2017-08-25T05:52:57.194Z,2548
2017-08-25T05:53:37.806Z,2484
2017-08-25T05:54:18.124Z,2536
2017-08-25T05:54:58.546Z,2628
2017-08-25T05:55:39.913Z,2960
2017-08-25T05:56:19.830Z,2188
2017-08-25T05:57:00.327Z,2028
2017-08-25T05:57:40.822Z,2004
2017-08-25T05:58:21.330Z,1916
2017-08-25T05:59:01.735Z,1968
2017-08-25T05:59:42.187Z,2204
2017-08-25T06:00:22.703Z,2136
2017-08-25T06:01:02.953Z,2276
2017-08-25T06:01:43.657Z,2080
2017-08-25T06:02:24.116Z,2192
2017-08-25T06:03:04.577Z,2344
2017-08-25T06:03:45.076Z,2532
2017-08-25T06:04:25.852Z,2916
2017-08-25T06:05:06.346Z,2724
2017-08-25T06:05:46.735Z,2824
2017-08-25T06:06:27.577Z,3052
2017-08-25T06:07:08.141Z,4356
2017-08-25T06:07:48.548Z,5532
2017-08-25T06:08:28.895Z,6128
2017-08-25T06:09:09.346Z,6792
2017-08-25T06:09:50.581Z,7000
2017-08-25T06:10:31.021Z,7180
2017-08-25T06:11:11.691Z,7316
2017-08-25T06:11:53.509Z,7260
2017-08-25T06:12:34.018Z,7292
2017-08-25T06:13:15.086Z,6296
2017-08-25T06:13:55.415Z,6012
2017-08-25T06:14:36.717Z,7052
2017-08-25T06:15:16.898Z,6364
2017-08-25T06:15:56.869Z,3832
2017-08-25T06:16:39.180Z,3816
2017-08-25T06:17:19.777Z,3828
2017-08-25T06:18:00.308Z,3872
2017-08-25T06:18:40.748Z,3988
2017-08-25T06:19:21.194Z,6696
2017-08-25T06:20:01.678Z,7292
2017-08-25T06:20:42.935Z,8800
2017-08-25T06:21:23.378Z,8840
2017-08-25T06:22:03.734Z,6112
2017-08-25T06:22:44.262Z,3288
2017-08-25T06:23:24.709Z,2916
2017-08-25T06:24:05.106Z,2648
2017-08-25T06:24:45.490Z,2460
2017-08-25T06:25:25.863Z,2376
2017-08-25T06:26:06.299Z,2264
2017-08-25T06:26:47.415Z,2116
2017-08-25T06:27:28.548Z,2064
2017-08-25T06:28:08.273Z,2116
2017-08-25T06:28:48.803Z,2248
2017-08-25T06:29:29.521Z,2504
2017-08-25T06:30:09.843Z,3632
2017-08-25T06:30:50.283Z,3916
2017-08-25T06:31:30.666Z,2824
2017-08-25T06:32:11.144Z,2776
2017-08-25T06:32:51.523Z,4192
2017-08-25T06:33:31.954Z,3452
2017-08-25T06:34:12.391Z,3236
2017-08-25T06:34:52.783Z,3192
2017-08-25T06:35:33.354Z,3528
2017-08-25T06:36:13.652Z,3112
2017-08-25T06:36:54.069Z,2788
2017-08-25T06:37:34.570Z,2760
2017-08-25T06:38:14.955Z,2944
2017-08-25T06:38:55.423Z,3016
2017-08-25T06:39:35.824Z,3148
2017-08-25T06:40:16.365Z,3648
2017-08-25T06:40:56.984Z,4092
2017-08-25T06:41:37.587Z,3492
2017-08-25T06:46:13.882Z,4628
2017-08-25T06:47:14.184Z,4596
2017-08-25T06:51:19.110Z,4344
2017-08-25T06:51:59.564Z,4652
2017-08-25T06:52:40.084Z,6488
2017-08-25T06:53:20.569Z,8516
2017-08-25T06:54:01.050Z,7564
2017-08-25T06:54:41.448Z,8644
2017-08-25T06:55:22.045Z,7988
2017-08-25T06:56:02.605Z,8008
2017-08-25T06:56:43.505Z,8268
2017-08-25T06:57:23.642Z,8408
2017-08-25T06:58:04.200Z,9308
2017-08-25T06:58:44.886Z,9140
2017-08-25T07:01:12.746Z,7440
2017-08-25T07:01:53.128Z,8652
2017-08-25T07:02:33.616Z,9868
2017-08-25T07:03:14.037Z,9780
2017-08-25T07:03:54.416Z,8940
2017-08-25T07:04:34.994Z,9152
2017-08-25T07:05:15.628Z,9308
2017-08-25T07:05:56.079Z,7864
2017-08-25T07:06:36.462Z,9480
2017-08-25T07:07:16.834Z,6168
2017-08-25T07:07:57.280Z,7724
2017-08-25T07:08:37.698Z,7784
2017-08-25T07:09:19.229Z,8144
2017-08-25T07:09:59.077Z,5476
2017-08-25T07:10:39.486Z,5064
2017-08-25T07:11:19.912Z,5024
2017-08-25T07:12:00.278Z,4820
2017-08-25T07:12:42.146Z,4600
2017-08-25T07:13:22.337Z,4356
2017-08-25T07:14:02.689Z,4124
2017-08-25T07:14:43.571Z,3968
2017-08-25T07:15:24.201Z,3924
2017-08-25T07:16:04.638Z,4000
2017-08-25T07:16:46.183Z,4164
2017-08-25T07:17:26.424Z,4240
2017-08-25T07:18:06.953Z,4384
2017-08-25T07:28:06.358Z,7304
2017-08-25T07:29:05.917Z,7828
2017-08-25T07:30:04.850Z,6660
2017-08-25T07:31:03.464Z,7612
2017-08-25T07:32:04.510Z,6828
2017-08-25T07:33:07.384Z,5376
2017-08-25T07:34:10.097Z,5544
2017-08-25T07:35:14.175Z,5268
2017-08-25T07:36:12.766Z,4508
2017-08-25T07:37:18.958Z,3984
2017-08-25T07:38:33.970Z,3820
2017-08-25T07:39:51.473Z,3792
2017-08-25T07:40:56.780Z,3912
2017-08-25T07:41:56.232Z,4348
2017-08-25T07:42:41.297Z,4312
2017-08-25T07:43:21.765Z,3608
2017-08-25T07:44:02.237Z,3256
2017-08-25T07:44:42.583Z,3024
2017-08-25T07:45:22.956Z,2956
2017-08-25T07:46:03.398Z,3020
2017-08-25T07:46:44.771Z,3424
2017-08-25T07:47:24.397Z,3924
2017-08-25T07:48:04.781Z,4084
2017-08-25T07:48:45.234Z,4136
2017-08-25T07:49:25.650Z,4228
2017-08-25T07:50:06.060Z,4564
2017-08-25T07:50:46.464Z,4324
2017-08-25T07:51:26.847Z,4492
2017-08-25T07:52:07.290Z,4492
2017-08-25T07:52:47.758Z,4240
2017-08-25T07:53:28.371Z,4164
2017-08-25T07:54:08.610Z,4128
2017-08-25T07:54:49.085Z,4200
2017-08-25T07:55:29.480Z,4268
2017-08-25T07:56:09.887Z,4324
2017-08-25T07:56:50.374Z,4304
2017-08-25T07:57:31.011Z,4508
2017-08-25T07:58:11.497Z,4612
2017-08-25T07:58:51.819Z,4564
2017-08-25T07:59:32.236Z,4516
2017-08-25T08:00:12.665Z,4728
2017-08-25T08:00:53.091Z,4828
2017-08-25T08:01:33.615Z,4992
2017-08-25T08:02:13.978Z,5168
2017-08-25T08:02:54.432Z,5032
2017-08-25T08:03:34.944Z,4896
2017-08-25T08:04:15.330Z,4952
2017-08-25T08:04:55.759Z,5056
2017-08-25T08:05:36.137Z,5040
2017-08-25T08:06:16.609Z,5100
2017-08-25T08:06:56.995Z,4976
2017-08-25T08:07:37.849Z,4920
2017-08-25T08:08:18.440Z,4848
2017-08-25T08:08:59.304Z,4764
2017-08-25T08:09:39.629Z,4612
2017-08-25T08:10:19.974Z,4524
2017-08-25T08:11:02.811Z,4516
2017-08-25T08:11:46.862Z,4568
2017-08-25T08:12:27.256Z,4628
2017-08-25T08:13:08.055Z,4544
2017-08-25T08:13:48.374Z,4648
2017-08-25T08:14:28.822Z,4764
2017-08-25T08:15:09.608Z,4848
2017-08-25T08:15:50.207Z,4796
2017-08-25T08:16:30.568Z,4976
2017-08-25T08:17:11.727Z,4908
2017-08-25T08:17:52.144Z,4964
2017-08-25T08:18:33.846Z,4868
2017-08-25T08:19:14.442Z,4900
2017-08-25T08:19:56.269Z,4880
2017-08-25T08:20:36.633Z,4748
2017-08-25T08:21:17.397Z,4572
2017-08-25T08:21:58.003Z,4576
2017-08-25T08:22:38.365Z,4708
2017-08-25T08:23:18.690Z,4724
2017-08-25T08:23:59.446Z,4760
2017-08-25T08:24:40.078Z,4760
2017-08-25T08:25:20.399Z,4752
2017-08-25T08:26:02.110Z,4712
2017-08-25T08:26:42.632Z,4624
2017-08-25T08:27:23.295Z,4560
2017-08-25T08:28:03.807Z,4632
2017-08-25T08:28:44.212Z,4616
2017-08-25T08:29:24.629Z,4652
2017-08-25T08:30:05.287Z,4744
2017-08-25T08:30:45.628Z,4820
2017-08-25T08:31:26.040Z,4924
2017-08-25T08:32:06.543Z,5004
2017-08-25T08:32:49.477Z,5032
2017-08-25T08:33:29.957Z,4904
2017-08-25T08:34:11.331Z,4676
2017-08-25T08:34:51.813Z,4560
2017-08-25T08:35:32.264Z,4596
2017-08-25T08:36:12.836Z,4456
2017-08-25T08:36:53.257Z,4528
2017-08-25T08:37:33.606Z,4616
2017-08-25T08:38:14.122Z,4644
2017-08-25T08:38:54.545Z,4760
2017-08-25T08:39:34.890Z,4812
2017-08-25T08:40:15.280Z,4848
2017-08-25T08:40:55.759Z,4828
2017-08-25T08:41:36.144Z,4804
2017-08-25T08:42:16.685Z,4588
2017-08-25T08:42:57.082Z,4492
2017-08-25T08:43:37.546Z,4556
2017-08-25T08:44:18.003Z,4284
2017-08-25T08:44:58.397Z,4288
2017-08-25T08:45:39.172Z,4692
2017-08-25T08:46:19.679Z,4536
2017-08-25T08:52:55.365Z,4168
2017-08-25T08:53:59.338Z,3876
2017-08-25T08:55:20.968Z,3740
2017-08-25T08:56:50.244Z,3536
2017-08-25T09:02:33.758Z,3808
2017-08-25T09:03:35.343Z,3800
2017-08-25T09:04:44.541Z,3844
2017-08-25T09:05:50.580Z,3912
2017-08-25T09:10:31.744Z,3728
2017-08-25T09:11:12.242Z,3688
2017-08-25T09:11:52.850Z,3612
2017-08-25T09:12:34.935Z,3640
2017-08-25T09:13:17.522Z,3664
2017-08-25T09:13:59.295Z,3660
2017-08-25T09:14:40.914Z,3668
2017-08-25T09:15:22.342Z,3612
2017-08-25T09:16:03.156Z,3564
2017-08-25T09:16:44.096Z,3464
2017-08-25T09:17:31.195Z,3428
2017-08-25T09:18:11.567Z,3448
2017-08-25T09:18:52.740Z,3488
2017-08-25T09:19:33.252Z,3468
2017-08-25T09:20:16.499Z,3436
2017-08-25T09:20:56.803Z,3428
2017-08-25T09:21:37.286Z,3416
2017-08-25T09:22:17.737Z,3416
2017-08-25T09:22:58.332Z,3452
2017-08-25T09:23:41.001Z,3424
2017-08-25T09:24:21.312Z,3304
2017-08-25T09:25:01.749Z,3268
2017-08-25T09:25:42.492Z,3344
2017-08-25T09:26:23.035Z,3312
2017-08-25T09:27:03.903Z,3224
2017-08-25T09:27:44.895Z,3180
2017-08-25T09:28:25.257Z,3216
2017-08-25T09:29:06.009Z,3292
2017-08-25T09:29:48.286Z,3268
2017-08-25T09:30:29.628Z,3208
2017-08-25T09:31:10.121Z,3252
2017-08-25T09:31:51.744Z,3296
2017-08-25T09:32:32.241Z,3328
2017-08-25T09:33:12.557Z,3340
2017-08-25T09:33:53.019Z,3344
2017-08-25T09:34:34.391Z,3312
2017-08-25T09:35:14.869Z,3320
2017-08-25T09:35:55.201Z,3304
2017-08-25T09:36:35.685Z,3296
2017-08-25T09:37:16.224Z,3280
2017-08-25T09:37:56.552Z,3244
2017-08-25T09:38:37.881Z,3200
2017-08-25T09:39:18.350Z,3160
2017-08-25T09:39:58.839Z,3024
2017-08-25T09:40:40.076Z,2916
2017-08-25T09:41:21.203Z,3004
2017-08-25T09:42:01.901Z,2976
2017-08-25T09:42:42.328Z,3012
2017-08-25T09:43:22.691Z,3060
2017-08-25T09:44:03.104Z,3076
2017-08-25T09:44:43.606Z,3072
2017-08-25T09:45:24.089Z,3052
2017-08-25T09:46:04.714Z,3040
2017-08-25T09:46:45.213Z,3076
2017-08-25T09:47:26.928Z,3052
2017-08-25T09:48:07.343Z,3000
2017-08-25T09:48:47.951Z,2952
2017-08-25T09:49:28.440Z,2964
2017-08-25T09:50:08.932Z,2948
2017-08-25T09:50:49.839Z,2980
2017-08-25T09:51:30.248Z,2996
2017-08-25T09:52:12.638Z,3000
2017-08-25T09:52:54.381Z,2976
2017-08-25T09:53:35.086Z,2976
2017-08-25T09:54:16.049Z,3000
2017-08-25T09:54:56.117Z,2984
2017-08-25T09:55:37.919Z,2980
2017-08-25T09:56:18.460Z,2976
2017-08-25T09:57:00.031Z,2944
2017-08-25T09:57:43.194Z,2948
2017-08-25T09:58:24.627Z,2936
2017-08-25T09:59:05.535Z,2920
2017-08-25T09:59:46.634Z,2884
2017-08-25T10:00:27.069Z,2912
2017-08-25T10:01:08.057Z,2884
2017-08-25T10:01:48.428Z,2856
2017-08-25T10:02:29.659Z,2844
2017-08-25T10:03:10.481Z,2848
2017-08-25T10:12:37.951Z,2792
2017-08-25T10:15:17.663Z,2780
2017-08-25T10:16:00.943Z,2792
2017-08-25T10:27:54.470Z,2772
2017-08-25T10:28:36.115Z,2776
2017-08-25T10:29:17.468Z,2752
2017-08-25T10:29:58.416Z,2728
2017-08-25T10:30:40.125Z,2724
2017-08-25T10:31:20.105Z,2756
2017-08-25T10:32:01.185Z,2736
2017-08-25T10:32:41.238Z,2716
2017-08-25T10:34:43.328Z,2724
2017-08-25T10:35:21.586Z,2684
2017-08-25T10:36:02.057Z,2576
2017-08-25T10:36:42.822Z,2552
2017-08-25T10:37:23.533Z,2560
2017-08-25T10:38:03.750Z,2560
2017-08-25T10:38:44.401Z,2536
2017-08-25T10:39:24.682Z,2516
2017-08-25T10:40:05.728Z,2516
2017-08-25T10:40:46.767Z,2496
2017-08-25T10:41:27.195Z,2464
2017-08-25T10:42:07.631Z,2468
2017-08-25T10:42:48.108Z,2444
2017-08-25T10:43:28.631Z,2392
2017-08-25T10:44:09.747Z,2372
2017-08-25T10:46:19.827Z,2492
2017-08-25T10:46:57.243Z,2432
2017-08-25T10:47:37.678Z,2388
2017-08-25T10:48:19.119Z,2380
2017-08-25T10:55:39.102Z,2444
2017-08-25T10:56:19.552Z,2512
2017-08-25T10:56:59.925Z,2516
2017-08-25T10:57:40.748Z,2552
2017-08-25T10:58:21.330Z,2552
2017-08-25T10:59:02.663Z,2560
2017-08-25T10:59:42.848Z,2580
2017-08-25T11:00:23.170Z,2596
2017-08-25T11:01:03.633Z,2652
2017-08-25T11:01:43.951Z,2608
2017-08-25T11:02:24.539Z,2564
2017-08-25T11:03:06.147Z,2536
2017-08-25T11:03:47.318Z,2592
2017-08-25T11:04:27.921Z,2652
2017-08-25T11:06:26.048Z,2636
2017-08-25T11:07:06.517Z,2632
2017-08-25T11:18:20.132Z,2384
2017-08-25T11:19:00.597Z,2564
2017-08-25T11:19:41.050Z,2404
2017-08-25T11:20:23.088Z,2576
2017-08-25T11:21:03.666Z,2648
2017-08-25T11:21:44.542Z,2668
2017-08-25T11:22:25.345Z,2664
2017-08-25T11:23:05.992Z,2576
2017-08-25T11:23:48.500Z,2236
2017-08-25T11:24:33.868Z,2232
2017-08-25T11:25:14.325Z,2224
2017-08-25T11:25:55.628Z,2308
2017-08-25T11:26:39.121Z,2440
2017-08-25T11:27:20.135Z,2356
2017-08-25T11:28:00.724Z,2404
2017-08-25T11:28:42.413Z,2420
2017-08-25T11:29:22.842Z,2468
2017-08-25T11:30:03.448Z,2460
2017-08-25T11:30:43.870Z,2300
2017-08-25T11:31:27.977Z,2228
2017-08-25T11:32:08.923Z,2204
2017-08-25T11:32:49.449Z,2260
2017-08-25T11:33:30.252Z,2300
2017-08-25T11:34:10.643Z,2436
2017-08-25T11:34:51.141Z,2468
2017-08-25T11:35:31.673Z,2580
2017-08-25T11:36:12.644Z,2604
2017-08-25T11:36:53.558Z,2824
2017-08-25T11:37:34.366Z,2624
2017-08-25T11:38:17.231Z,2604
2017-08-25T11:38:57.694Z,2604
2017-08-25T11:39:38.334Z,2552
2017-08-25T11:40:19.826Z,2776
2017-08-25T11:41:00.525Z,2852
2017-08-25T11:41:43.551Z,2548
2017-08-25T11:42:23.757Z,2592
2017-08-25T11:43:04.484Z,2672
2017-08-25T11:43:44.998Z,2724
2017-08-25T11:44:26.023Z,2900
2017-08-25T11:45:06.419Z,2628
2017-08-25T11:45:46.911Z,2680
2017-08-25T11:46:27.825Z,2672
2017-08-25T11:47:10.520Z,2584
2017-08-25T11:47:50.809Z,2604
2017-08-25T11:48:32.167Z,2672
2017-08-25T11:49:13.114Z,2780
2017-08-25T11:50:08.510Z,2904
2017-08-25T11:50:49.543Z,2808
2017-08-25T11:51:29.967Z,2788
2017-08-25T11:52:10.563Z,2680
2017-08-25T11:52:50.999Z,2616
2017-08-25T11:53:31.874Z,2564